Long Beach, CA (90842)

4:55 PM PDT on September 19, 2014 (GMT -0700)
Bixby Heights | Change Station
CLOSE
Current Station
Personal Weather Station
Location: Long Beach, CA
Elevation: 82 ft
Nearby Weather Stations

Elev 82 ft 33.83 °N, 118.17 °W | Updated 18 seconds ago

Clear
Clear
78.3 °F
Feels Like 80 °F
N
2.0
Wind Variable Wind from WNW
Gusts 9.0 mph

Today
High -- | Low -- °F
--% Chance of Precip.
Yesterday
High -- | Low -- °F
Precip. -- in
6:38 AM 6:53 PM
Waning Crescent, 16% visible
Pressure 29.83 in
Visibility 10.0 miles
Clouds Clear
Heat Index 80 °F
Dew Point 62 °F
Humidity 58%
Rainfall 0.00 in
Snow Depth 0 in , 0 in , 0 in
UV 4 out of 12
Pollen 6.90 out of 12
Ozone Good
Flu Activity Not available.
METAR KLGB 192253Z 20008KT 10SM CLR 25/16 A2983 RMK AO2 SLP100 T02500161

More Conditions Fewer Conditions

Pressure 29.83 in
Visibility 10.0 miles
Clouds Clear
Heat Index 80 °F
Dew Point 62 °F
Humidity 58%
Rainfall 0.00 in
Snow Depth 0 in , 0 in , 0 in
UV 4 out of 12
Pollen 6.90 out of 12
Ozone Good
Flu Activity Not available.
METAR KLGB 192253Z 20008KT 10SM CLR 25/16 A2983 RMK AO2 SLP100 T02500161

More Conditions Fewer Conditions

10-Day Weather Forecast

Almanac

Astronomy

Sep. 19, 2014 Rise Set
Actual Time 6:38 AM PDT 6:53 PM PDT
Civil Twilight 6:13 AM PDT 7:18 PM PDT
Nautical Twilight 5:44 AM PDT 7:47 PM PDT
Astronomical Twilight 5:15 AM PDT 8:16 PM PDT
Moon 2:37 AM PDT 4:16 PM PDT
Length of Visible Light 13h 04m
Length of Day
12h 14m
Tomorrow will be 2m 4s shorter.
Waning Crescent, 16% of the Moon is Illuminated
Today
Waning Crescent
Sep 24
New
Oct 1
First Quarter
Oct 8
Full
Oct 15
Last Quarter

Today's Extremes

State Highs State Lows

Community

WunderPhotos

Upload Photos

1,754,730 photos uploaded!

Nearby

Air Quality

  Air Quality AQ Index Pollutant
Yesterday Good
OZONE
Current Good
OZONE
Saturday Good
PM10
Saturday Good
OZONE
Saturday Good
CO
Saturday Good
NO2

Snow Depth

Station Depth Elevation
Leavitt Meadows 0 in 7200 ft
Tahoe City Cross 0 in 6750 ft
Spratt Creek 0 in 6200 ft
Rubicon #2 0 in 7500 ft
Echo Peak 0 in 7800 ft

Earthquake Activity

City Distance Mag. Time & Date
Aguanga, California 82 miles 2.5 1:38 AM PDT
2014-09-19
Minimum magnitude displayed is 2.5.

Coastal Water Temperatures

Place Temperature
Santa Monica Pier 71.1 °F
Los Angeles, CA 68.0 °F
La Jolla, CA 73.9 °F

Nearby Weather Stations